Time;durP1;ratioP1;P1;durP2;ratioP2;P2;SDS_P1;SDS_P2;PMS_P1;PMS_P2;Temp;Humidity;BMP_temperature;BMP_pressure;BME280_temperature;BME280_humidity;BME280_pressure;Samples;Min_cycle;Max_cycle;Signal;HPM_P1;HPM_P2
2023/08/10 05:00:58;;;;;;;0.00;0.00;;;15.70;99.90;;;;;;5790833;23;20065;-77
2023/08/10 05:03:24;;;;;;;0.00;0.00;;;15.80;99.90;;;;;;5036970;28;20113;-78
2023/08/10 05:05:51;;;;;;;0.00;0.00;;;15.90;99.90;;;;;;5007978;28;20734;-78
2023/08/10 05:08:17;;;;;;;0.00;0.00;;;16.00;99.90;;;;;;4994360;28;20026;-79
2023/08/10 05:10:43;;;;;;;0.00;0.00;;;16.00;99.90;;;;;;5017455;28;20041;-78
2023/08/10 05:13:09;;;;;;;0.00;0.00;;;16.10;99.90;;;;;;5035880;28;20029;-81
2023/08/10 05:15:35;;;;;;;0.00;0.00;;;16.20;99.90;;;;;;5045902;28;20044;-76
2023/08/10 05:18:02;;;;;;;0.00;0.00;;;16.30;99.90;;;;;;5020087;28;20321;-75
2023/08/10 05:20:27;;;;;;;0.00;0.00;;;16.40;99.90;;;;;;5012902;28;20029;-78
2023/08/10 05:22:53;;;;;;;0.00;0.00;;;16.50;99.90;;;;;;5039091;28;20067;-76
2023/08/10 05:25:19;;;;;;;0.00;0.00;;;16.50;99.90;;;;;;5049403;28;20033;-76
2023/08/10 05:27:45;;;;;;;0.10;0.00;;;16.60;99.90;;;;;;5022203;28;20021;-77
2023/08/10 05:30:11;;;;;;;0.00;0.00;;;16.60;99.90;;;;;;5011792;28;20026;-76
2023/08/10 05:32:39;;;;;;;0.00;0.00;;;16.70;99.90;;;;;;5014510;28;20032;-77
2023/08/10 05:35:07;;;;;;;0.00;0.00;;;16.80;99.90;;;;;;5048999;28;20013;-77
2023/08/10 05:37:33;;;;;;;0.00;0.00;;;17.00;99.90;;;;;;5031444;28;20017;-76
2023/08/10 05:40:09;;;;;;;0.00;0.00;;;17.10;99.90;;;;;;5049083;28;20026;-77
2023/08/10 05:42:38;;;;;;;0.00;0.00;;;17.30;99.90;;;;;;5038203;28;20022;-76
2023/08/10 05:45:08;;;;;;;0.00;0.00;;;17.40;99.90;;;;;;5038075;28;20037;-76
2023/08/10 05:47:35;;;;;;;0.00;0.00;;;17.60;99.90;;;;;;5014307;28;20064;-76
2023/08/10 05:50:01;;;;;;;0.00;0.00;;;17.70;99.90;;;;;;5031970;28;20026;-77
2023/08/10 05:52:26;;;;;;;0.00;0.00;;;17.80;99.90;;;;;;5032832;28;20073;-76
2023/08/10 06:15:37;;;;;;;0.00;0.00;;;25.30;99.90;;;;;;5330917;23;20056;-85
2023/08/10 06:18:02;;;;;;;0.00;0.00;;;26.50;98.70;;;;;;5009207;28;20076;-87
2023/08/10 06:20:28;;;;;;;;;;;27.10;97.30;;;;;;5045136;28;20037;-87
2023/08/10 06:22:54;;;;;;;0.00;0.00;;;27.90;95.30;;;;;;5026311;28;19916;-87
2023/08/10 06:25:20;;;;;;;0.00;0.00;;;28.90;93.40;;;;;;5040533;28;20245;-85
2023/08/10 06:27:47;;;;;;;0.10;0.10;;;29.30;92.00;;;;;;5042598;28;20029;-87
2023/08/10 06:30:16;;;;;;;0.00;0.00;;;29.70;90.90;;;;;;5023944;28;20032;-84
2023/08/10 06:32:42;;;;;;;0.00;0.00;;;29.40;90.30;;;;;;5003071;28;20131;-86
2023/08/10 06:35:09;;;;;;;0.00;0.00;;;30.20;88.10;;;;;;5041608;28;20028;-87
2023/08/10 06:37:35;;;;;;;0.00;0.00;;;30.80;86.20;;;;;;5025434;28;20500;-85
2023/08/10 06:40:01;;;;;;;0.00;0.00;;;31.30;83.40;;;;;;5041285;28;20475;-86
2023/08/10 06:42:27;;;;;;;0.00;0.00;;;31.60;81.00;;;;;;5007456;28;20026;-85
2023/08/10 06:44:52;;;;;;;0.00;0.00;;;32.20;80.00;;;;;;5031811;28;20032;-84
2023/08/10 06:47:18;;;;;;;0.00;0.00;;;32.50;78.10;;;;;;5040554;28;20116;-85
2023/08/10 06:49:45;;;;;;;0.00;0.00;;;32.80;76.20;;;;;;5021769;28;20049;-83
2023/08/10 06:52:10;;;;;;;0.25;0.25;;;33.20;74.80;;;;;;5005121;28;20025;-84
2023/08/10 06:54:36;;;;;;;0.00;0.00;;;33.40;73.70;;;;;;5011627;28;20028;-84
2023/08/10 06:57:02;;;;;;;0.00;0.00;;;33.90;72.00;;;;;;5027154;28;20021;-80
2023/08/10 06:59:27;;;;;;;0.00;0.00;;;33.30;72.40;;;;;;5021955;28;20037;-82
2023/08/10 07:01:53;;;;;;;0.00;0.00;;;33.70;71.10;;;;;;5005905;28;20030;-84
2023/08/10 07:04:19;;;;;;;0.00;0.00;;;34.00;69.60;;;;;;5022514;28;20032;-84
2023/08/10 07:06:44;;;;;;;0.00;0.00;;;34.20;68.80;;;;;;5018787;28;20037;-84
2023/08/10 07:09:10;;;;;;;0.05;0.05;;;34.40;68.30;;;;;;4999497;28;20033;-85
2023/08/10 07:11:36;;;;;;;0.00;0.00;;;34.50;66.60;;;;;;4984435;28;20040;-85
2023/08/10 07:14:02;;;;;;;0.00;0.00;;;34.80;66.20;;;;;;5004206;28;20038;-80
2023/08/10 07:16:28;;;;;;;0.00;0.00;;;34.00;66.40;;;;;;5024133;28;20504;-84
2023/08/10 07:18:55;;;;;;;0.00;0.00;;;33.90;66.90;;;;;;5024810;28;20029;-82
2023/08/10 07:21:22;;;;;;;0.05;0.05;;;33.40;66.40;;;;;;5003148;28;21033;-84
2023/08/10 07:23:48;;;;;;;0.00;0.00;;;31.50;70.70;;;;;;5005504;28;20030;-85
2023/08/10 07:26:14;;;;;;;0.00;0.00;;;30.10;74.20;;;;;;4983533;28;20041;-84
2023/08/10 07:28:39;;;;;;;0.00;0.00;;;31.10;71.90;;;;;;4985178;28;20022;-85
2023/08/10 07:31:05;;;;;;;0.00;0.00;;;31.80;69.40;;;;;;5005134;28;20066;-84
2023/08/10 07:33:31;;;;;;;0.00;0.00;;;31.50;69.90;;;;;;5023949;28;20035;-83
2023/08/10 07:35:59;;;;;;;0.00;0.00;;;30.60;71.20;;;;;;4999721;28;20541;-83
2023/08/10 07:38:25;;;;;;;0.00;0.00;;;31.60;70.80;;;;;;4987056;28;20445;-82
2023/08/10 07:40:50;;;;;;;0.00;0.00;;;32.00;69.30;;;;;;5017137;28;20068;-82
2023/08/10 07:43:17;;;;;;;0.00;0.00;;;31.30;68.50;;;;;;5009118;28;20110;-85
2023/08/10 07:45:42;;;;;;;0.00;0.00;;;29.60;72.20;;;;;;5008771;28;20488;-83
2023/08/10 07:48:09;;;;;;;0.00;0.00;;;28.90;72.90;;;;;;5004231;28;20031;-85
2023/08/10 07:50:35;;;;;;;0.00;0.00;;;28.80;75.80;;;;;;5008829;28;20496;-85
2023/08/10 07:53:03;;;;;;;0.00;0.00;;;30.70;71.70;;;;;;4988091;28;20026;-80
2023/08/10 07:55:28;;;;;;;0.00;0.00;;;32.30;68.60;;;;;;4994572;28;20119;-84
2023/08/10 07:57:54;;;;;;;0.00;0.00;;;33.40;66.60;;;;;;5020913;28;20516;-84
2023/08/10 08:00:20;;;;;;;0.00;0.00;;;31.40;66.90;;;;;;4997252;28;20645;-85
2023/08/10 08:02:45;;;;;;;0.00;0.00;;;29.40;71.00;;;;;;4981662;28;20088;-87
2023/08/10 08:05:11;;;;;;;0.00;0.00;;;28.50;73.40;;;;;;4990759;28;20051;-84
2023/08/10 08:07:37;;;;;;;0.00;0.00;;;29.30;72.90;;;;;;5005067;28;20021;-83
2023/08/10 08:10:03;;;;;;;0.00;0.00;;;30.60;71.50;;;;;;5018631;28;20103;-83
2023/08/10 08:12:30;;;;;;;0.05;0.05;;;32.90;67.90;;;;;;5001839;28;20022;-85
2023/08/10 08:14:56;;;;;;;0.08;0.08;;;34.60;65.20;;;;;;4988199;28;20033;-84
2023/08/10 08:17:22;;;;;;;0.00;0.00;;;34.70;62.70;;;;;;5005970;28;20044;-87
2023/08/10 08:19:48;;;;;;;0.00;0.00;;;32.60;64.80;;;;;;5023080;28;20075;-86
2023/08/10 08:22:14;;;;;;;0.00;0.00;;;30.80;67.20;;;;;;4981909;28;20075;-86
2023/08/10 08:24:41;;;;;;;0.00;0.00;;;29.00;68.10;;;;;;4988584;28;20383;-81
2023/08/10 08:27:06;;;;;;;0.00;0.00;;;26.30;72.70;;;;;;5041571;28;20049;-79
2023/08/10 08:29:34;;;;;;;0.00;0.00;;;24.70;80.50;;;;;;5044000;28;20044;-78
2023/08/10 08:32:00;;;;;;;0.00;0.00;;;23.80;86.00;;;;;;5029098;28;20036;-78
2023/08/10 08:34:25;;;;;;;0.00;0.00;;;23.60;88.60;;;;;;5011610;28;20113;-85
2023/08/10 08:36:51;;;;;;;0.00;0.00;;;23.80;90.00;;;;;;4986058;28;20029;-81
2023/08/10 08:39:17;;;;;;;;;;;23.70;90.20;;;;;;5002512;28;20025;-84
2023/08/10 08:41:46;;;;;;;0.00;0.00;;;24.00;90.40;;;;;;5016374;28;19916;-81
2023/08/10 08:44:13;;;;;;;0.00;0.00;;;23.90;90.70;;;;;;4990469;28;20034;-82
2023/08/10 08:46:42;;;;;;;0.00;0.00;;;23.60;91.40;;;;;;5015026;28;20472;-81
2023/08/10 08:49:09;;;;;;;0.00;0.00;;;23.60;91.80;;;;;;5015679;28;20076;-80
2023/08/10 08:51:36;;;;;;;0.00;0.00;;;23.30;92.30;;;;;;5026388;28;20527;-82
2023/08/10 08:54:03;;;;;;;0.00;0.00;;;23.10;93.40;;;;;;5012326;28;20040;-77
2023/08/10 08:56:28;;;;;;;0.00;0.00;;;22.90;93.70;;;;;;5026061;28;20033;-82
2023/08/10 08:58:54;;;;;;;0.00;0.00;;;22.90;94.10;;;;;;5038127;28;20014;-81
2023/08/10 09:01:20;;;;;;;;;;;24.10;93.20;;;;;;5019492;28;20068;-78
2023/08/10 09:03:48;;;;;;;0.00;0.00;;;26.50;90.30;;;;;;5000515;28;19906;-88
2023/08/10 09:06:13;;;;;;;0.00;0.00;;;29.20;83.60;;;;;;4989996;28;20030;-84
2023/08/10 09:08:39;;;;;;;0.00;0.00;;;30.70;77.50;;;;;;5000701;28;20022;-84
2023/08/10 09:11:07;;;;;;;0.00;0.00;;;31.10;75.40;;;;;;4999756;28;20026;-85
2023/08/10 09:13:32;;;;;;;0.00;0.00;;;30.20;75.60;;;;;;5000778;28;20030;-84
2023/08/10 09:16:10;;;;;;;0.00;0.00;;;29.70;76.20;;;;;;5001861;28;20049;-83
2023/08/10 09:18:37;;;;;;;0.00;0.00;;;29.10;75.50;;;;;;4981548;28;20018;-86
2023/08/10 09:21:23;;;;;;;0.20;0.05;;;28.20;77.70;;;;;;4986465;28;20029;-88
2023/08/10 09:23:52;;;;;;;0.00;0.00;;;27.30;80.50;;;;;;5002981;28;20030;-86
2023/08/10 09:26:19;;;;;;;0.00;0.00;;;26.70;81.80;;;;;;5013167;28;20509;-87
2023/08/10 09:28:47;;;;;;;0.00;0.00;;;26.10;82.10;;;;;;4983212;28;20142;-85
2023/08/10 09:31:13;;;;;;;0.00;0.00;;;25.80;83.30;;;;;;5004808;28;20025;-86
2023/08/10 09:33:39;;;;;;;0.00;0.00;;;25.40;83.70;;;;;;5005756;28;20026;-84
2023/08/10 09:36:06;;;;;;;;;;;25.20;84.50;;;;;;4998539;28;20030;-82
2023/08/10 09:38:32;;;;;;;0.00;0.00;;;25.10;85.60;;;;;;4996096;28;19921;-79
2023/08/10 09:41:19;;;;;;;0.00;0.00;;;24.70;86.90;;;;;;5023380;28;20045;-81
2023/08/10 09:43:45;;;;;;;0.00;0.00;;;24.00;88.30;;;;;;4998887;28;20574;-80
2023/08/10 09:46:12;;;;;;;;;;;23.80;89.40;;;;;;4995638;28;20018;-81
2023/08/10 09:48:50;;;;;;;0.00;0.00;;;23.90;89.10;;;;;;5038979;28;19996;-80
2023/08/10 09:51:18;;;;;;;0.00;0.00;;;25.50;86.30;;;;;;5024832;28;20526;-84
2023/08/10 09:53:44;;;;;;;0.00;0.00;;;27.20;80.90;;;;;;4968027;28;20448;-81
2023/08/10 09:56:10;;;;;;;0.00;0.00;;;27.30;79.70;;;;;;5004353;28;20066;-78
2023/08/10 09:58:40;;;;;;;0.00;0.00;;;25.50;85.30;;;;;;5044403;28;20026;-79
2023/08/10 10:01:07;;;;;;;0.00;0.00;;;24.50;89.10;;;;;;5027822;28;20110;-81
2023/08/10 10:03:33;;;;;;;0.00;0.00;;;23.60;91.40;;;;;;5027350;28;20049;-77
2023/08/10 10:06:01;;;;;;;0.00;0.00;;;22.80;92.50;;;;;;5004956;28;20021;-78
2023/08/10 10:08:29;;;;;;;0.00;0.00;;;22.50;93.20;;;;;;5037462;28;20032;-77
2023/08/10 10:10:58;;;;;;;1.27;0.20;;;22.10;94.10;;;;;;5024695;28;20022;-78
2023/08/10 10:13:25;;;;;;;0.00;0.00;;;21.50;95.80;;;;;;5023086;28;20033;-77
2023/08/10 10:15:53;;;;;;;0.00;0.00;;;22.20;97.30;;;;;;5025577;28;20029;-77
2023/08/10 10:18:19;;;;;;;0.00;0.00;;;24.70;93.60;;;;;;5016704;28;20018;-79
2023/08/10 10:20:46;;;;;;;0.00;0.00;;;26.70;91.10;;;;;;4988273;28;20026;-85
2023/08/10 10:23:20;;;;;;;0.00;0.00;;;28.60;86.70;;;;;;5015617;28;20515;-87
2023/08/10 10:26:18;;;;;;;0.00;0.00;;;29.80;82.70;;;;;;5035275;28;20036;-79
2023/08/10 10:29:22;;;;;;;0.03;0.03;;;27.40;85.40;;;;;;5012536;28;20030;-82
2023/08/10 10:31:47;;;;;;;0.00;0.00;;;25.00;88.50;;;;;;5011693;28;20476;-78
2023/08/10 10:34:16;;;;;;;;;;;24.20;90.70;;;;;;5027681;28;20079;-78
2023/08/10 10:36:43;;;;;;;0.00;0.00;;;23.60;91.00;;;;;;5013061;28;19909;-79
2023/08/10 10:39:11;;;;;;;0.20;0.13;;;23.00;92.50;;;;;;5035196;28;20112;-80
2023/08/10 10:41:40;;;;;;;0.00;0.00;;;22.30;93.60;;;;;;5016221;28;20025;-76
2023/08/10 10:44:08;;;;;;;0.20;0.20;;;22.00;93.90;;;;;;5025582;28;20053;-80
2023/08/10 10:46:34;;;;;;;0.00;0.00;;;21.80;93.60;;;;;;5000170;28;20052;-76
2023/08/10 10:49:05;;;;;;;0.00;0.00;;;21.80;94.30;;;;;;5017916;28;20110;-78
2023/08/10 10:51:30;;;;;;;0.00;0.00;;;22.10;93.40;;;;;;5040922;28;20026;-77
2023/08/10 10:53:57;;;;;;;0.00;0.00;;;22.00;93.00;;;;;;5027136;28;20053;-79
2023/08/10 10:56:26;;;;;;;0.00;0.00;;;22.00;93.10;;;;;;4997680;28;20327;-79
2023/08/10 10:58:52;;;;;;;0.00;0.00;;;21.90;93.20;;;;;;5012460;28;20057;-77
2023/08/10 11:01:19;;;;;;;0.00;0.00;;;21.90;93.60;;;;;;5018363;28;20185;-76
2023/08/10 11:03:54;;;;;;;0.00;0.00;;;21.70;93.30;;;;;;5024199;28;20029;-79
2023/08/10 11:06:23;;;;;;;0.00;0.00;;;21.40;93.20;;;;;;5016451;28;20028;-77
2023/08/10 11:08:51;;;;;;;0.00;0.00;;;21.10;93.60;;;;;;5009590;28;20026;-80
2023/08/10 11:11:17;;;;;;;0.00;0.00;;;21.40;94.20;;;;;;5031698;28;20380;-79
2023/08/10 11:13:43;;;;;;;;;;;21.60;94.30;;;;;;5007395;28;20540;-78
2023/08/10 11:16:09;;;;;;;0.00;0.00;;;21.90;94.20;;;;;;5014493;28;19916;-79
2023/08/10 11:18:37;;;;;;;0.00;0.00;;;21.90;93.90;;;;;;5011300;28;20032;-80
2023/08/10 11:21:06;;;;;;;0.00;0.00;;;21.40;94.30;;;;;;5017409;28;20030;-75
2023/08/10 11:23:32;;;;;;;0.00;0.00;;;21.40;94.60;;;;;;5000297;28;20026;-76
2023/08/10 11:26:02;;;;;;;0.00;0.00;;;21.10;95.10;;;;;;4999991;28;20048;-78
2023/08/10 11:28:28;;;;;;;0.00;0.00;;;21.20;95.60;;;;;;5003904;28;20883;-79
2023/08/10 11:30:53;;;;;;;0.00;0.00;;;21.40;96.10;;;;;;5039345;28;20022;-77
2023/08/10 11:33:20;;;;;;;0.00;0.00;;;21.50;94.90;;;;;;5015186;28;20041;-79
2023/08/10 11:35:50;;;;;;;0.10;0.10;;;21.40;95.70;;;;;;5017261;28;20049;-76
2023/08/10 11:38:16;;;;;;;0.00;0.00;;;21.70;96.00;;;;;;5003217;28;20049;-76
2023/08/10 11:40:42;;;;;;;0.00;0.00;;;21.70;96.80;;;;;;5023272;28;20029;-78
2023/08/10 11:43:12;;;;;;;0.00;0.00;;;21.80;96.60;;;;;;5006918;28;20025;-79
2023/08/10 11:45:39;;;;;;;0.00;0.00;;;21.90;96.30;;;;;;5009664;28;20037;-76
2023/08/10 11:48:11;;;;;;;4.47;0.17;;;21.80;95.50;;;;;;5018706;28;20022;-76
2023/08/10 11:50:38;;;;;;;0.00;0.00;;;21.90;95.30;;;;;;4987290;28;20054;-77
2023/08/10 11:53:21;;;;;;;0.00;0.00;;;22.20;98.20;;;;;;5002892;28;20385;-75
2023/08/10 11:55:49;;;;;;;0.00;0.00;;;22.50;99.80;;;;;;5004668;28;20061;-76
2023/08/10 11:58:15;;;;;;;0.00;0.00;;;22.60;99.90;;;;;;5001621;28;20038;-77
2023/08/10 12:05:59;;;;;;;0.75;0.10;;;20.40;99.90;;;;;;5314534;23;20060;-77
2023/08/10 12:08:26;;;;;;;0.20;0.20;;;20.00;99.90;;;;;;5010058;28;20038;-78
2023/08/10 12:11:14;;;;;;;0.00;0.00;;;19.80;99.90;;;;;;5022552;28;20467;-78
2023/08/10 12:13:54;;;;;;;0.00;0.00;;;19.80;99.90;;;;;;5023366;28;20052;-77
2023/08/10 12:31:53;;;;;;;0.00;0.00;;;21.70;99.90;;;;;;6122731;23;19923;-79
2023/08/10 12:34:19;;;;;;;0.00;0.00;;;22.30;99.90;;;;;;5048062;28;20017;-77
2023/08/10 12:39:20;;;;;;;0.00;0.00;;;23.70;99.90;;;;;;5689662;23;20041;-76
2023/08/10 12:41:49;;;;;;;0.00;0.00;;;24.40;99.70;;;;;;5023304;28;20110;-76
2023/08/10 12:44:15;;;;;;;0.00;0.00;;;24.70;96.60;;;;;;5027588;28;20045;-78
2023/08/10 12:46:41;;;;;;;;;;;24.90;96.40;;;;;;5024635;28;20068;-76
2023/08/10 13:07:14;;;;;;;0.00;0.00;;;24.50;95.10;;;;;;5678520;23;20041;-77
2023/08/10 13:27:50;;;;;;;0.05;0.00;;;24.70;93.50;;;;;;5783545;23;20049;-77
2023/08/10 13:30:16;;;;;;;0.00;0.00;;;24.10;94.20;;;;;;5051729;28;20037;-76
2023/08/10 13:32:42;;;;;;;0.10;0.00;;;24.10;93.80;;;;;;5052190;28;20043;-78
2023/08/10 13:35:08;;;;;;;;;;;23.90;94.10;;;;;;5048252;28;20021;-78
2023/08/10 13:37:36;;;;;;;0.00;0.00;;;24.00;92.90;;;;;;5014103;28;19956;-76
2023/08/10 13:40:02;;;;;;;0.00;0.00;;;23.70;93.30;;;;;;5028955;28;20007;-77
2023/08/10 13:42:29;;;;;;;0.00;0.00;;;23.80;92.90;;;;;;5021231;28;20144;-76
2023/08/10 13:44:55;;;;;;;0.00;0.00;;;24.10;92.80;;;;;;5019777;28;20036;-77
2023/08/10 13:47:22;;;;;;;0.00;0.00;;;24.20;92.30;;;;;;5048766;28;20031;-77
2023/08/10 13:52:23;;;;;;;0.00;0.00;;;24.10;94.60;;;;;;5998895;23;20016;-77
2023/08/10 13:54:49;;;;;;;0.00;0.00;;;23.90;94.80;;;;;;5027845;28;20014;-77
2023/08/10 13:57:17;;;;;;;;;;;23.90;95.20;;;;;;5006115;28;20053;-77
2023/08/10 13:59:44;;;;;;;0.00;0.00;;;23.70;94.80;;;;;;5027471;28;19906;-77
2023/08/10 14:02:10;;;;;;;0.00;0.00;;;23.80;93.70;;;;;;5019372;28;20025;-77
2023/08/10 14:04:36;;;;;;;0.00;0.00;;;23.80;93.80;;;;;;5010453;28;20022;-76
2023/08/10 14:07:04;;;;;;;;;;;23.80;93.70;;;;;;5009456;28;20326;-77
2023/08/10 14:09:29;;;;;;;0.00;0.00;;;23.60;92.20;;;;;;5007948;28;19921;-77
2023/08/10 14:11:55;;;;;;;0.00;0.00;;;24.10;91.50;;;;;;5002835;28;20005;-77
2023/08/10 14:14:21;;;;;;;;;;;24.00;89.90;;;;;;5025012;28;20046;-80
2023/08/10 14:16:47;;;;;;;0.00;0.00;;;23.90;90.30;;;;;;5003924;28;19893;-76
2023/08/10 14:19:14;;;;;;;0.10;0.10;;;23.60;87.20;;;;;;5007144;28;20092;-78
2023/08/10 14:21:41;;;;;;;0.00;0.00;;;23.70;88.00;;;;;;5009552;28;20049;-76
2023/08/10 14:24:07;;;;;;;0.00;0.00;;;23.60;88.90;;;;;;5007593;28;20037;-75
2023/08/10 14:26:34;;;;;;;0.00;0.00;;;23.60;90.70;;;;;;5008181;28;20026;-77
2023/08/10 14:29:00;;;;;;;0.00;0.00;;;23.70;90.70;;;;;;4991153;28;20038;-78
2023/08/10 14:31:26;;;;;;;0.00;0.00;;;23.80;90.50;;;;;;4993295;28;20537;-79
2023/08/10 14:33:52;;;;;;;;;;;23.80;90.90;;;;;;5008866;28;20030;-77
2023/08/10 14:36:17;;;;;;;0.00;0.00;;;23.70;91.70;;;;;;5026794;28;19909;-76
2023/08/10 14:38:43;;;;;;;0.00;0.00;;;23.50;92.60;;;;;;5004993;28;20560;-77
2023/08/10 14:41:09;;;;;;;;;;;23.10;92.90;;;;;;4996651;28;20034;-79
2023/08/10 14:43:35;;;;;;;0.13;0.13;;;23.20;93.30;;;;;;4999235;28;19960;-80
2023/08/10 14:46:01;;;;;;;0.00;0.00;;;23.80;93.50;;;;;;5000460;28;20037;-79
2023/08/10 14:48:27;;;;;;;0.00;0.00;;;23.40;93.00;;;;;;5006464;28;20018;-77
2023/08/10 14:50:52;;;;;;;;;;;23.40;93.30;;;;;;5019120;28;20053;-79
2023/08/10 14:53:18;;;;;;;0.00;0.00;;;23.40;92.70;;;;;;5017611;28;19917;-80
2023/08/10 14:55:44;;;;;;;0.00;0.00;;;23.50;92.70;;;;;;5015022;28;20040;-76
2023/08/10 14:58:09;;;;;;;0.00;0.00;;;23.50;92.70;;;;;;5026426;28;20033;-76
2023/08/10 15:00:35;;;;;;;0.00;0.00;;;23.50;92.60;;;;;;5009507;28;20030;-77
2023/08/10 15:03:03;;;;;;;0.00;0.00;;;23.50;93.00;;;;;;5009429;28;20024;-77
2023/08/10 15:05:29;;;;;;;0.00;0.00;;;23.40;92.40;;;;;;5010663;28;20144;-77
2023/08/10 15:07:55;;;;;;;0.00;0.00;;;23.50;92.60;;;;;;5026886;28;20085;-76
2023/08/10 15:10:22;;;;;;;;;;;23.60;92.90;;;;;;5027130;28;20105;-76
2023/08/10 15:12:48;;;;;;;0.00;0.00;;;23.50;92.70;;;;;;5023851;28;19949;-76
2023/08/10 15:15:15;;;;;;;0.00;0.00;;;23.40;92.40;;;;;;5009310;28;20030;-77
2023/08/10 15:17:41;;;;;;;0.00;0.00;;;23.50;92.20;;;;;;5002789;28;20022;-80
2023/08/10 15:20:09;;;;;;;;;;;23.50;91.80;;;;;;5022702;28;20072;-77
2023/08/10 15:22:36;;;;;;;0.00;0.00;;;23.40;92.30;;;;;;5019109;28;19933;-75
2023/08/10 15:25:04;;;;;;;0.00;0.00;;;23.20;92.20;;;;;;5019750;28;20081;-77
2023/08/10 15:27:30;;;;;;;0.00;0.00;;;22.70;93.10;;;;;;5022241;28;20073;-77
2023/08/10 15:29:56;;;;;;;0.00;0.00;;;22.40;93.70;;;;;;4999594;28;20022;-77
2023/08/10 15:32:23;;;;;;;;;;;22.30;93.80;;;;;;5022259;28;20041;-76
2023/08/10 15:34:49;;;;;;;0.00;0.00;;;22.30;94.20;;;;;;5003761;28;19921;-78
2023/08/10 15:37:15;;;;;;;;;;;22.10;94.10;;;;;;5017261;28;20022;-78
2023/08/10 15:39:40;;;;;;;0.00;0.00;;;22.10;94.50;;;;;;5001794;28;19909;-77
2023/08/10 15:42:06;;;;;;;0.00;0.00;;;22.10;94.10;;;;;;5002709;28;20038;-79
2023/08/10 15:44:32;;;;;;;0.03;0.00;;;22.30;93.50;;;;;;5001540;28;20034;-77
2023/08/10 15:46:58;;;;;;;0.00;0.00;;;22.20;93.70;;;;;;5004379;28;20077;-76
2023/08/10 15:49:24;;;;;;;0.00;0.00;;;22.20;93.60;;;;;;5004000;28;20653;-78
2023/08/10 15:51:50;;;;;;;0.00;0.00;;;21.70;93.50;;;;;;4996448;28;20049;-77
2023/08/10 15:54:16;;;;;;;0.00;0.00;;;22.20;94.30;;;;;;5001489;28;20061;-79
2023/08/10 15:56:42;;;;;;;0.00;0.00;;;22.00;93.00;;;;;;5004181;28;20030;-77
2023/08/10 15:59:07;;;;;;;0.00;0.00;;;22.00;93.40;;;;;;4996390;28;20025;-77
2023/08/10 16:01:33;;;;;;;0.00;0.00;;;22.00;92.20;;;;;;5015179;28;20026;-80
2023/08/10 16:03:59;;;;;;;0.00;0.00;;;21.90;92.10;;;;;;4995075;28;20088;-80
2023/08/10 16:06:25;;;;;;;;;;;21.70;93.20;;;;;;4993093;28;20077;-79
2023/08/10 16:08:51;;;;;;;0.00;0.00;;;21.70;93.70;;;;;;4994458;28;19933;-80
2023/08/10 16:11:20;;;;;;;0.00;0.00;;;21.60;94.00;;;;;;4995524;28;20048;-77
2023/08/10 16:13:46;;;;;;;0.00;0.00;;;21.60;95.20;;;;;;4997908;28;20068;-79
2023/08/10 16:16:12;;;;;;;0.00;0.00;;;21.40;95.60;;;;;;4993512;28;20026;-79
2023/08/10 16:18:38;;;;;;;0.47;0.00;;;21.50;95.20;;;;;;5017270;28;20030;-78
2023/08/10 16:21:04;;;;;;;0.00;0.00;;;21.50;93.90;;;;;;4999827;28;20029;-78
2023/08/10 16:23:30;;;;;;;0.08;0.08;;;21.50;94.10;;;;;;5017319;28;20061;-79
2023/08/10 16:25:55;;;;;;;0.00;0.00;;;21.50;94.50;;;;;;5016884;28;20018;-78
2023/08/10 16:28:21;;;;;;;0.00;0.00;;;21.50;95.70;;;;;;5016893;28;20040;-77
2023/08/10 16:30:47;;;;;;;0.00;0.00;;;21.50;95.90;;;;;;5014631;28;20033;-78
2023/08/10 16:33:13;;;;;;;0.00;0.00;;;21.50;96.30;;;;;;5016772;28;20037;-79
2023/08/10 16:35:39;;;;;;;0.00;0.00;;;21.50;96.80;;;;;;4995229;28;20057;-80
2023/08/10 16:38:05;;;;;;;0.00;0.00;;;21.40;96.50;;;;;;4999191;28;20030;-78
2023/08/10 16:40:31;;;;;;;0.00;0.00;;;21.30;96.60;;;;;;4998603;28;20033;-78
2023/08/10 16:42:58;;;;;;;0.00;0.00;;;21.30;96.50;;;;;;5010087;28;20484;-79
2023/08/10 16:45:24;;;;;;;0.00;0.00;;;21.20;96.20;;;;;;4987700;28;20030;-79
2023/08/10 16:47:50;;;;;;;0.20;0.20;;;21.20;96.20;;;;;;4992154;28;20026;-79
2023/08/10 16:50:16;;;;;;;0.00;0.00;;;21.20;96.20;;;;;;4976635;28;20624;-79
2023/08/10 16:52:42;;;;;;;0.00;0.00;;;21.20;96.30;;;;;;4994036;28;20097;-79
2023/08/10 16:55:09;;;;;;;0.00;0.00;;;21.10;97.40;;;;;;4992648;28;20038;-77
2023/08/10 16:57:37;;;;;;;0.00;0.00;;;21.10;98.60;;;;;;4998415;28;20445;-79
2023/08/10 17:00:09;;;;;;;0.00;0.00;;;21.10;99.60;;;;;;4996898;28;20101;-77
2023/08/10 17:02:36;;;;;;;0.00;0.00;;;20.70;99.90;;;;;;5012788;28;20044;-81
2023/08/10 17:05:04;;;;;;;0.00;0.00;;;20.90;99.90;;;;;;5012967;28;20033;-81
2023/08/10 17:07:32;;;;;;;0.00;0.00;;;20.80;99.90;;;;;;4991219;28;20018;-82
2023/08/10 17:09:59;;;;;;;0.00;0.00;;;20.80;99.90;;;;;;4995141;28;20038;-82
2023/08/10 17:12:26;;;;;;;0.00;0.00;;;20.70;99.90;;;;;;5012417;28;20049;-82
2023/08/10 17:14:53;;;;;;;0.00;0.00;;;20.60;99.90;;;;;;4994829;28;20104;-82
2023/08/10 17:17:22;;;;;;;0.00;0.00;;;20.50;99.90;;;;;;5014576;28;20040;-82
2023/08/10 17:19:49;;;;;;;0.00;0.00;;;20.50;99.90;;;;;;5014367;28;20081;-81
2023/08/10 17:22:16;;;;;;;0.00;0.00;;;20.40;99.90;;;;;;4993272;28;20029;-79
2023/08/10 17:24:43;;;;;;;0.00;0.00;;;20.30;99.90;;;;;;5013721;28;20108;-82
2023/08/10 17:27:10;;;;;;;0.00;0.00;;;20.20;99.90;;;;;;4997573;28;20081;-81
2023/08/10 17:29:37;;;;;;;0.00;0.00;;;20.00;99.90;;;;;;4996576;28;20172;-82
2023/08/10 17:32:04;;;;;;;0.00;0.00;;;19.90;99.90;;;;;;5014080;28;20125;-83
2023/08/10 17:34:31;;;;;;;0.00;0.00;;;19.80;99.90;;;;;;5009628;28;20018;-82
2023/08/10 17:36:57;;;;;;;0.00;0.00;;;19.70;99.90;;;;;;5016921;28;20207;-82
2023/08/10 17:39:25;;;;;;;0.00;0.00;;;19.60;99.90;;;;;;5018896;28;20044;-82
2023/08/10 17:41:52;;;;;;;0.00;0.00;;;19.50;99.90;;;;;;4997253;28;20052;-79
2023/08/10 17:44:18;;;;;;;0.00;0.00;;;19.40;99.90;;;;;;5000613;28;20041;-78
2023/08/10 17:46:44;;;;;;;0.00;0.00;;;19.30;99.90;;;;;;4997262;28;20037;-77
2023/08/10 17:49:11;;;;;;;0.00;0.00;;;19.20;99.90;;;;;;5016888;28;20048;-80
2023/08/10 17:51:40;;;;;;;0.00;0.00;;;19.10;99.90;;;;;;4997096;28;20076;-79
2023/08/10 17:54:07;;;;;;;0.00;0.00;;;18.20;99.90;;;;;;4999388;28;20026;-75
2023/08/10 17:56:33;;;;;;;;;;;19.00;99.90;;;;;;5017731;28;20018;-80
2023/08/10 17:58:59;;;;;;;0.00;0.00;;;18.90;99.90;;;;;;5002409;28;19905;-77
2023/08/10 18:01:26;;;;;;;0.00;0.00;;;18.90;99.90;;;;;;5004380;28;20033;-80
2023/08/10 18:03:52;;;;;;;0.00;0.00;;;18.80;99.90;;;;;;5017229;28;20022;-79
2023/08/10 18:06:19;;;;;;;0.00;0.00;;;18.70;99.90;;;;;;5016762;28;20041;-79
2023/08/10 18:08:45;;;;;;;0.00;0.00;;;18.20;99.90;;;;;;5018471;28;20018;-79
2023/08/10 18:11:11;;;;;;;;;;;18.60;99.90;;;;;;5017320;28;20040;-77
2023/08/10 18:13:38;;;;;;;0.00;0.00;;;18.50;99.90;;;;;;5001087;28;19909;-80
2023/08/10 18:16:04;;;;;;;0.10;0.10;;;18.50;99.90;;;;;;5019304;28;20258;-78
2023/08/10 18:18:30;;;;;;;0.00;0.00;;;18.40;99.90;;;;;;5015425;28;20057;-78
2023/08/10 18:21:01;;;;;;;0.00;0.00;;;18.40;99.90;;;;;;4999073;28;20036;-80
2023/08/10 18:23:28;;;;;;;0.00;0.00;;;18.30;99.90;;;;;;5018272;28;20041;-77
2023/08/10 18:25:55;;;;;;;0.00;0.00;;;18.20;99.90;;;;;;4995198;28;20034;-79
2023/08/10 18:28:23;;;;;;;0.00;0.00;;;18.10;99.90;;;;;;5014784;28;20056;-80
2023/08/10 18:30:50;;;;;;;0.00;0.00;;;18.00;99.90;;;;;;4995913;28;20750;-78
2023/08/10 18:33:17;;;;;;;0.00;0.00;;;17.90;99.90;;;;;;5004450;28;20033;-77
2023/08/10 18:35:43;;;;;;;;;;;17.90;99.90;;;;;;4995572;28;20595;-79
2023/08/10 18:38:09;;;;;;;0.00;0.00;;;17.90;99.90;;;;;;4993649;28;19912;-80
2023/08/10 18:40:37;;;;;;;0.00;0.00;;;17.80;99.90;;;;;;5010781;28;20032;-79
2023/08/10 18:43:04;;;;;;;0.00;0.00;;;17.70;99.90;;;;;;5010303;28;20022;-79
2023/08/10 18:45:31;;;;;;;0.00;0.00;;;17.70;99.90;;;;;;5001506;28;20080;-76
2023/08/10 18:48:01;;;;;;;0.00;0.00;;;17.70;99.90;;;;;;4993096;28;20129;-78
2023/08/10 18:50:27;;;;;;;0.00;0.00;;;17.70;99.90;;;;;;5008501;28;20045;-80
2023/08/10 18:52:54;;;;;;;0.00;0.00;;;17.70;99.90;;;;;;4995102;28;20410;-78
2023/08/10 18:55:20;;;;;;;;;;;17.60;99.90;;;;;;5010753;28;20022;-79
2023/08/10 18:57:47;;;;;;;0.00;0.00;;;17.60;99.90;;;;;;5012014;28;20398;-80
2023/08/10 19:00:14;;;;;;;0.00;0.00;;;17.60;99.90;;;;;;5011224;28;20033;-79
2023/08/10 19:02:41;;;;;;;0.00;0.00;;;17.60;99.90;;;;;;4992120;28;20068;-76
2023/08/10 19:05:09;;;;;;;0.00;0.00;;;17.60;99.90;;;;;;4997019;28;20101;-79
2023/08/10 19:07:38;;;;;;;0.00;0.00;;;17.50;99.90;;;;;;5012155;28;20022;-79
2023/08/10 19:10:06;;;;;;;0.20;0.10;;;17.50;99.90;;;;;;4995728;28;20061;-79
2023/08/10 19:12:35;;;;;;;0.05;0.03;;;17.50;99.90;;;;;;5013743;28;20018;-80
2023/08/10 19:15:01;;;;;;;0.00;0.00;;;17.50;99.90;;;;;;5012229;28;20050;-79